Clearfield, South Dakota
Current Conditions -  °F | °C
As of 11:53 PM on Tuesday 21 Oct 2014 (Local Time) from KICR Reporting Station
Clear Clear  
Wind Chill: 66°   Ceiling: Unl
Heat Index: 66°   Visibility: 10mi
Dew Point: 52°   Wind: 21mph
Humidity: 60%   Direction: 160°SSE
Pressure: 29.83"   Gusts: 29mph
Location:  43.2923°N, 99.8934°W
Report Text: KICR 220453Z AUTO 16018G25KT 10SM CLR 19/11 A2983 RMK AO2 SLP087 T01890111
Loading
Personal Weather Stations






























Interactive Weather Map
Tropical Storm Tracking
New forecast layout! Learn more

10-Day Weather Forecast

Advertisements
Track Severe Weather on mobile